createdAt,value
2023-01-08T00:01:23.709Z,100177.78
2023-01-08T00:03:51.808Z,100178.00
2023-01-08T00:06:21.456Z,100159.03
2023-01-08T00:08:48.935Z,100172.81
2023-01-08T00:11:17.062Z,100163.44
2023-01-08T00:13:44.588Z,100161.53
2023-01-08T00:16:16.799Z,100162.84
2023-01-08T00:18:46.141Z,100161.75
2023-01-08T00:21:13.960Z,100157.34
2023-01-08T00:23:41.517Z,100154.19
2023-01-08T00:26:10.365Z,100154.44
2023-01-08T00:28:38.461Z,100142.63
2023-01-08T00:31:10.769Z,100130.59
2023-01-08T00:33:39.141Z,100135.87
2023-01-08T00:36:09.033Z,100137.12
2023-01-08T00:38:36.850Z,100131.31
2023-01-08T00:41:04.903Z,100138.91
2023-01-08T00:43:32.915Z,100137.22
2023-01-08T00:46:00.453Z,100139.81
2023-01-08T00:48:28.277Z,100142.88
2023-01-08T00:50:55.750Z,100152.09
2023-01-08T00:53:23.498Z,100162.31
2023-01-08T00:55:51.311Z,100154.19
2023-01-08T00:58:18.730Z,100152.31
2023-01-08T01:00:46.295Z,100149.63
2023-01-08T01:03:14.076Z,100154.38
2023-01-08T01:05:41.491Z,100154.56
2023-01-08T01:08:08.917Z,100167.72
2023-01-08T01:10:39.053Z,100169.81
2023-01-08T01:13:06.751Z,100160.44
2023-01-08T01:15:34.241Z,100160.16
2023-01-08T01:18:01.997Z,100153.19
2023-01-08T01:20:29.457Z,100146.19
2023-01-08T01:22:56.981Z,100145.03
2023-01-08T01:25:24.700Z,100143.00
2023-01-08T01:27:52.596Z,100146.25
2023-01-08T01:30:20.033Z,100139.53
2023-01-08T01:32:47.832Z,100133.44
2023-01-08T01:35:15.389Z,100132.69
2023-01-08T01:37:42.817Z,100135.25
2023-01-08T01:40:12.229Z,100130.88
2023-01-08T01:42:39.962Z,100124.47
2023-01-08T01:45:25.247Z,100116.25
2023-01-08T01:48:00.605Z,100118.47
2023-01-08T01:50:31.185Z,100114.34
2023-01-08T01:53:03.825Z,100108.16
2023-01-08T01:55:32.023Z,100106.62
2023-01-08T01:58:14.671Z,100114.00
2023-01-08T02:00:42.954Z,100097.09
2023-01-08T02:03:12.022Z,100084.22
2023-01-08T02:06:04.617Z,100098.56
2023-01-08T02:08:47.721Z,100087.44
2023-01-08T02:12:09.361Z,100087.22
2023-01-08T02:15:15.349Z,100078.91
2023-01-08T02:17:54.276Z,100081.50
2023-01-08T02:20:24.107Z,100070.41
2023-01-08T02:23:07.839Z,100075.53
2023-01-08T02:26:06.836Z,100078.91
2023-01-08T02:28:40.802Z,100073.84
2023-01-08T02:31:08.769Z,100071.37
2023-01-08T02:33:36.574Z,100059.44
2023-01-08T02:36:18.126Z,100055.28
2023-01-08T02:39:14.131Z,100063.44
2023-01-08T02:41:41.461Z,100066.69
2023-01-08T02:44:13.296Z,100055.66
2023-01-08T02:46:42.111Z,100054.72
2023-01-08T02:49:13.334Z,100054.59
2023-01-08T02:51:50.828Z,100057.13
2023-01-08T02:54:23.098Z,100058.13
2023-01-08T02:56:55.634Z,100057.37
2023-01-08T02:59:23.869Z,100055.28
2023-01-08T03:01:52.428Z,100055.91
2023-01-08T03:04:22.767Z,100055.53
2023-01-08T03:06:50.834Z,100055.56
2023-01-08T03:09:18.773Z,100057.59
2023-01-08T03:12:09.955Z,100053.13
2023-01-08T03:14:48.251Z,100051.75
2023-01-08T03:17:22.027Z,100049.53
2023-01-08T03:19:54.452Z,100042.44
2023-01-08T03:22:22.605Z,100037.06
2023-01-08T03:24:53.024Z,100042.00
2023-01-08T03:27:26.751Z,100039.63
2023-01-08T03:29:56.149Z,100045.19
2023-01-08T03:32:25.032Z,100038.34
2023-01-08T03:34:54.530Z,100024.44
2023-01-08T03:37:26.702Z,100033.78
2023-01-08T03:40:09.543Z,100036.56
2023-01-08T03:42:37.341Z,100038.47
2023-01-08T03:45:05.220Z,100035.94
2023-01-08T03:47:33.791Z,100031.28
2023-01-08T03:50:03.910Z,100028.69
2023-01-08T03:52:33.199Z,100032.69
2023-01-08T03:55:01.024Z,100017.63
2023-01-08T03:57:28.481Z,100013.22
2023-01-08T03:59:55.878Z,100026.16
2023-01-08T04:02:23.681Z,100013.78
2023-01-08T04:04:51.445Z,100027.31
2023-01-08T04:07:18.853Z,100021.22
2023-01-08T04:09:47.095Z,100016.94
2023-01-08T04:12:14.793Z,100024.78
2023-01-08T04:14:42.259Z,100026.19
2023-01-08T04:17:13.471Z,100024.66
2023-01-08T04:19:41.294Z,100020.06
2023-01-08T04:22:11.798Z,100016.63
2023-01-08T04:24:39.244Z,100017.81
2023-01-08T04:27:07.003Z,100011.75
2023-01-08T04:29:34.579Z,100002.56
2023-01-08T04:32:02.129Z,100003.78
2023-01-08T04:34:29.881Z,100006.37
2023-01-08T04:36:57.383Z,100008.84
2023-01-08T04:39:24.856Z,100012.97
2023-01-08T04:41:52.590Z,100009.28
2023-01-08T04:44:20.053Z,100023.72
2023-01-08T04:46:47.522Z,100025.50
2023-01-08T04:49:15.398Z,100014.81
2023-01-08T04:51:42.849Z,100012.84
2023-01-08T04:54:10.305Z,100010.06
2023-01-08T04:56:38.013Z,100009.94
2023-01-08T04:59:05.843Z,100011.09
2023-01-08T05:01:33.366Z,100014.13
2023-01-08T05:04:03.492Z,100013.75
2023-01-08T05:06:32.095Z,100011.84
2023-01-08T05:08:59.704Z,100019.25
2023-01-08T05:11:27.425Z,100019.31
2023-01-08T05:13:55.369Z,100016.97
2023-01-08T05:16:23.618Z,100007.81
2023-01-08T05:18:51.342Z,100003.13
2023-01-08T05:21:18.888Z,100001.84
2023-01-08T05:23:50.341Z,99997.78
2023-01-08T05:26:19.437Z,100001.56
2023-01-08T05:28:47.070Z,99998.12
2023-01-08T05:31:15.425Z,99996.88
2023-01-08T05:33:43.370Z,99994.19
2023-01-08T05:36:12.363Z,100000.09
2023-01-08T05:38:39.983Z,99992.72
2023-01-08T05:41:07.737Z,99986.69
2023-01-08T05:43:35.590Z,99993.59
2023-01-08T05:46:04.383Z,100001.81
2023-01-08T05:48:33.352Z,99994.88
2023-01-08T05:51:01.334Z,99987.66
2023-01-08T05:53:28.757Z,99985.16
2023-01-08T05:56:09.133Z,99985.00
2023-01-08T05:58:37.388Z,99977.13
2023-01-08T06:01:10.839Z,99981.69
2023-01-08T06:03:39.194Z,99965.41
2023-01-08T06:06:07.807Z,99971.19
2023-01-08T06:08:35.460Z,99974.09
2023-01-08T06:11:06.385Z,99970.59
2023-01-08T06:13:35.849Z,99965.56
2023-01-08T06:16:03.820Z,99964.72
2023-01-08T06:18:31.525Z,99970.50
2023-01-08T06:20:59.503Z,99964.56
2023-01-08T06:23:27.283Z,99965.03
2023-01-08T06:26:00.417Z,99962.00
2023-01-08T06:28:28.169Z,99969.00
2023-01-08T06:30:59.124Z,99966.28
2023-01-08T06:33:26.646Z,99961.97
2023-01-08T06:35:54.665Z,99960.97
2023-01-08T06:38:22.139Z,99953.03
2023-01-08T06:40:49.610Z,99961.25
2023-01-08T06:43:18.763Z,99952.84
2023-01-08T06:45:53.330Z,99961.44
2023-01-08T06:48:21.088Z,99955.03
2023-01-08T06:50:48.535Z,99957.84
2023-01-08T06:53:15.979Z,99964.53
2023-01-08T06:55:43.693Z,99957.44
2023-01-08T06:58:14.955Z,99958.72
2023-01-08T07:00:43.499Z,99950.69
2023-01-08T07:03:11.478Z,99960.09
2023-01-08T07:05:38.924Z,99956.63
2023-01-08T07:08:06.522Z,99956.34
2023-01-08T07:10:34.781Z,99957.78
2023-01-08T07:13:02.302Z,99958.25
2023-01-08T07:15:29.738Z,99964.56
2023-01-08T07:17:57.603Z,99969.59
2023-01-08T07:20:25.036Z,99963.66
2023-01-08T07:22:52.483Z,99963.69
2023-01-08T07:25:20.269Z,99958.41
2023-01-08T07:27:49.512Z,99961.31
2023-01-08T07:30:28.956Z,99955.63
2023-01-08T07:33:00.137Z,99953.56
2023-01-08T07:35:28.105Z,99944.31
2023-01-08T07:37:55.643Z,99945.56
2023-01-08T07:40:23.493Z,99943.81
2023-01-08T07:43:01.185Z,99954.72
2023-01-08T07:45:29.591Z,99947.31
2023-01-08T07:47:58.193Z,99952.81
2023-01-08T07:50:26.299Z,99941.66
2023-01-08T07:53:00.104Z,99941.09
2023-01-08T07:55:28.719Z,99946.69
2023-01-08T07:57:56.462Z,99942.59
2023-01-08T08:00:23.920Z,99948.28
2023-01-08T08:02:51.823Z,99940.87
2023-01-08T08:05:19.423Z,99942.28
2023-01-08T08:07:46.885Z,99937.41
2023-01-08T08:10:14.641Z,99935.00
2023-01-08T08:12:45.189Z,99935.91
2023-01-08T08:15:12.773Z,99940.87
2023-01-08T08:17:40.486Z,99930.91
2023-01-08T08:20:09.909Z,99926.25
2023-01-08T08:22:37.379Z,99923.34
2023-01-08T08:25:05.519Z,99924.41
2023-01-08T08:27:32.914Z,99920.69
2023-01-08T08:30:00.416Z,99908.47
2023-01-08T08:32:28.109Z,99910.44
2023-01-08T08:34:55.707Z,99914.03
2023-01-08T08:37:23.128Z,99906.19
2023-01-08T08:39:50.946Z,99909.25
2023-01-08T08:42:18.970Z,99912.47
2023-01-08T08:44:46.420Z,99902.13
2023-01-08T08:47:14.191Z,99903.66
2023-01-08T08:49:41.994Z,99900.25
2023-01-08T08:52:09.801Z,99890.41
2023-01-08T08:54:41.486Z,99897.62
2023-01-08T08:57:09.819Z,99887.06
2023-01-08T08:59:37.665Z,99899.75
2023-01-08T09:02:05.820Z,99899.06
2023-01-08T09:04:34.356Z,99907.84
2023-01-08T09:07:02.160Z,99898.94
2023-01-08T09:09:29.767Z,99897.50
2023-01-08T09:11:57.661Z,99892.31
2023-01-08T09:14:25.426Z,99884.56
2023-01-08T09:16:52.941Z,99878.66
2023-01-08T09:19:20.429Z,99880.66
2023-01-08T09:21:48.939Z,99879.56
2023-01-08T09:24:16.819Z,99886.19
2023-01-08T09:26:44.271Z,99877.59
2023-01-08T09:29:12.135Z,99873.28
2023-01-08T09:31:39.613Z,99878.16
2023-01-08T09:34:07.154Z,99871.69
2023-01-08T09:36:34.967Z,99875.94
2023-01-08T09:39:02.447Z,99863.91
2023-01-08T09:41:35.222Z,99851.69
2023-01-08T09:44:05.184Z,99842.75
2023-01-08T09:46:32.729Z,99847.47
2023-01-08T09:49:04.652Z,99839.78
2023-01-08T09:51:37.368Z,99851.13
2023-01-08T09:54:07.775Z,99844.50
2023-01-08T09:56:35.675Z,99831.16
2023-01-08T09:59:04.770Z,99824.47
2023-01-08T10:01:36.401Z,99823.91
2023-01-08T10:04:17.737Z,99813.91
2023-01-08T10:06:54.664Z,99804.81
2023-01-08T10:09:33.035Z,99812.13
2023-01-08T10:12:01.881Z,99802.06
2023-01-08T10:14:33.568Z,99797.38
2023-01-08T10:17:11.670Z,99801.06
2023-01-08T10:19:39.651Z,99799.91
2023-01-08T10:22:16.917Z,99783.88
2023-01-08T10:24:44.795Z,99777.31
2023-01-08T10:27:15.211Z,99778.41
2023-01-08T10:29:42.841Z,99770.31
2023-01-08T10:32:10.526Z,99776.03
2023-01-08T10:34:56.206Z,99774.97
2023-01-08T10:37:42.634Z,99776.88
2023-01-08T10:40:24.054Z,99772.28
2023-01-08T10:42:52.509Z,99758.44
2023-01-08T10:45:28.002Z,99755.97
2023-01-08T10:47:58.450Z,99747.47
2023-01-08T10:50:32.480Z,99744.34
2023-01-08T10:53:06.618Z,99737.66
2023-01-08T10:55:37.450Z,99742.09
2023-01-08T10:58:15.382Z,99730.53
2023-01-08T11:00:43.129Z,99732.03
2023-01-08T11:03:23.324Z,99726.91
2023-01-08T11:05:51.373Z,99727.97
2023-01-08T11:08:22.912Z,99726.47
2023-01-08T11:10:58.833Z,99714.38
2023-01-08T11:13:29.264Z,99718.50
2023-01-08T11:16:04.168Z,99712.84
2023-01-08T11:18:36.921Z,99711.50
2023-01-08T11:21:10.679Z,99700.12
2023-01-08T11:23:38.419Z,99690.94
2023-01-08T11:26:11.348Z,99687.34
2023-01-08T11:29:06.877Z,99686.28
2023-01-08T11:31:41.706Z,99679.41
2023-01-08T11:34:26.559Z,99670.69
2023-01-08T11:36:59.196Z,99665.56
2023-01-08T11:39:26.993Z,99664.34
2023-01-08T11:42:03.295Z,99662.62
2023-01-08T11:44:44.079Z,99665.63
2023-01-08T11:47:41.373Z,99648.38
2023-01-08T11:50:30.016Z,99638.38
2023-01-08T11:53:32.930Z,99640.44
2023-01-08T11:56:37.797Z,99637.38
2023-01-08T11:59:36.354Z,99633.28
2023-01-08T12:02:10.267Z,99633.47
2023-01-08T12:04:54.315Z,99633.03
2023-01-08T12:07:33.243Z,99633.59
2023-01-08T12:10:29.104Z,99634.53
2023-01-08T12:13:02.532Z,99620.63
2023-01-08T12:15:46.704Z,99626.94
2023-01-08T12:18:17.653Z,99620.00
2023-01-08T12:21:14.729Z,99619.91
2023-01-08T12:24:02.327Z,99628.25
2023-01-08T12:26:50.727Z,99618.03
2023-01-08T12:29:25.096Z,99617.78
2023-01-08T12:32:06.470Z,99627.31
2023-01-08T12:34:58.778Z,99627.50
2023-01-08T12:37:51.827Z,99620.56
2023-01-08T12:40:27.543Z,99617.84
2023-01-08T12:43:01.023Z,99609.47
2023-01-08T12:45:36.467Z,99611.06
2023-01-08T12:48:09.312Z,99613.34
2023-01-08T12:50:58.324Z,99610.84
2023-01-08T12:53:30.646Z,99612.75
2023-01-08T12:56:14.196Z,99604.00
2023-01-08T12:59:00.524Z,99601.00
2023-01-08T13:01:28.124Z,99600.44
2023-01-08T13:03:58.365Z,99597.28
2023-01-08T13:06:26.232Z,99596.47
2023-01-08T13:08:55.714Z,99595.56
2023-01-08T13:11:32.076Z,99599.84
2023-01-08T13:14:08.181Z,99599.72
2023-01-08T13:16:39.548Z,99599.22
2023-01-08T13:19:27.645Z,99589.66
2023-01-08T13:21:57.958Z,99595.22
2023-01-08T13:24:38.921Z,99592.31
2023-01-08T13:27:28.430Z,99589.00
2023-01-08T13:29:58.226Z,99585.66
2023-01-08T13:32:48.901Z,99585.00
2023-01-08T13:35:16.391Z,99586.62
2023-01-08T13:37:46.280Z,99582.37
2023-01-08T13:40:38.936Z,99574.00
2023-01-08T13:43:12.846Z,99579.94
2023-01-08T13:45:41.531Z,99569.00
2023-01-08T13:48:23.224Z,99583.47
2023-01-08T13:50:51.190Z,99577.59
2023-01-08T13:53:20.046Z,99564.13
2023-01-08T13:56:08.244Z,99568.94
2023-01-08T13:58:40.962Z,99570.38
2023-01-08T14:01:09.966Z,99569.59
2023-01-08T14:03:43.023Z,99578.09
2023-01-08T14:06:17.692Z,99572.06
2023-01-08T14:09:00.162Z,99566.97
2023-01-08T14:11:28.574Z,99569.94
2023-01-08T14:13:56.830Z,99567.75
2023-01-08T14:16:24.608Z,99563.34
2023-01-08T14:18:52.833Z,99569.59
2023-01-08T14:21:22.184Z,99576.13
2023-01-08T14:23:51.094Z,99565.06
2023-01-08T14:26:31.601Z,99578.00
2023-01-08T14:29:00.226Z,99574.94
2023-01-08T14:31:28.458Z,99566.87
2023-01-08T14:33:58.011Z,99567.78
2023-01-08T14:36:26.592Z,99570.31
2023-01-08T14:38:55.063Z,99569.28
2023-01-08T14:41:54.868Z,99563.97
2023-01-08T14:44:36.243Z,99564.19
2023-01-08T14:47:06.388Z,99558.00
2023-01-08T14:49:40.774Z,99566.75
2023-01-08T14:52:11.105Z,99553.09
2023-01-08T14:54:38.919Z,99559.34
2023-01-08T14:57:06.495Z,99554.38
2023-01-08T14:59:37.888Z,99557.81
2023-01-08T15:02:07.922Z,99560.78
2023-01-08T15:04:35.452Z,99549.72
2023-01-08T15:07:19.217Z,99547.12
2023-01-08T15:09:58.563Z,99548.75
2023-01-08T15:12:28.151Z,99551.22
2023-01-08T15:14:55.884Z,99546.88
2023-01-08T15:17:25.705Z,99542.16
2023-01-08T15:19:58.181Z,99548.59
2023-01-08T15:22:32.831Z,99546.47
2023-01-08T15:25:01.149Z,99541.72
2023-01-08T15:27:31.445Z,99543.53
2023-01-08T15:30:04.091Z,99543.87
2023-01-08T15:32:37.106Z,99538.72
2023-01-08T15:35:25.939Z,99534.75
2023-01-08T15:37:53.724Z,99547.25
2023-01-08T15:40:21.245Z,99538.81
2023-01-08T15:43:07.308Z,99539.09
2023-01-08T15:45:35.125Z,99534.81
2023-01-08T15:48:03.255Z,99523.03
2023-01-08T15:50:37.726Z,99530.91
2023-01-08T15:53:32.153Z,99529.91
2023-01-08T15:55:59.846Z,99523.09
2023-01-08T15:58:27.619Z,99520.53
2023-01-08T16:00:55.091Z,99526.00
2023-01-08T16:03:25.473Z,99525.81
2023-01-08T16:05:52.898Z,99523.66
2023-01-08T16:08:20.690Z,99520.22
2023-01-08T16:10:52.765Z,99522.00
2023-01-08T16:13:20.628Z,99519.13
2023-01-08T16:15:49.176Z,99519.50
2023-01-08T16:18:16.942Z,99517.75
2023-01-08T16:20:44.416Z,99518.72
2023-01-08T16:23:13.818Z,99518.09
2023-01-08T16:25:41.505Z,99518.97
2023-01-08T16:28:10.177Z,99519.31
2023-01-08T16:30:39.841Z,99509.88
2023-01-08T16:33:07.462Z,99507.81
2023-01-08T16:35:35.143Z,99494.97
2023-01-08T16:38:03.505Z,99501.12
2023-01-08T16:40:31.577Z,99502.78
2023-01-08T16:43:02.166Z,99492.63
2023-01-08T16:45:31.707Z,99498.97
2023-01-08T16:47:59.455Z,99502.41
2023-01-08T16:50:28.557Z,99504.69
2023-01-08T16:52:56.788Z,99496.56
2023-01-08T16:55:24.528Z,99498.75
2023-01-08T16:57:53.996Z,99495.59
2023-01-08T17:00:24.360Z,99494.47
2023-01-08T17:02:52.957Z,99495.72
2023-01-08T17:05:23.525Z,99497.94
2023-01-08T17:07:52.829Z,99488.31
2023-01-08T17:10:24.919Z,99484.72
2023-01-08T17:12:54.042Z,99491.31
2023-01-08T17:15:25.977Z,99486.00
2023-01-08T17:17:53.813Z,99481.63
2023-01-08T17:20:21.687Z,99486.69
2023-01-08T17:22:49.339Z,99495.94
2023-01-08T17:25:20.676Z,99490.87
2023-01-08T17:27:48.619Z,99490.84
2023-01-08T17:30:16.788Z,99481.00
2023-01-08T17:32:45.740Z,99481.31
2023-01-08T17:35:13.724Z,99474.41
2023-01-08T17:37:41.397Z,99476.59
2023-01-08T17:40:10.470Z,99483.00
2023-01-08T17:42:39.469Z,99477.50
2023-01-08T17:45:08.272Z,99484.22
2023-01-08T17:47:37.459Z,99472.84
2023-01-08T17:50:06.332Z,99472.22
2023-01-08T17:52:34.583Z,99472.78
2023-01-08T17:55:03.267Z,99470.19
2023-01-08T17:57:33.011Z,99466.87
2023-01-08T18:00:01.788Z,99471.38
2023-01-08T18:02:32.634Z,99469.09
2023-01-08T18:05:00.950Z,99476.97
2023-01-08T18:07:29.158Z,99470.03
2023-01-08T18:09:57.979Z,99470.81
2023-01-08T18:12:26.646Z,99470.22
2023-01-08T18:14:54.501Z,99469.56
2023-01-08T18:17:23.239Z,99467.59
2023-01-08T18:19:51.869Z,99471.59
2023-01-08T18:22:21.579Z,99468.00
2023-01-08T18:24:49.259Z,99478.16
2023-01-08T18:27:17.724Z,99469.88
2023-01-08T18:29:45.859Z,99471.22
2023-01-08T18:32:13.706Z,99472.44
2023-01-08T18:34:43.626Z,99486.81
2023-01-08T18:37:11.559Z,99482.84
2023-01-08T18:39:39.598Z,99475.06
2023-01-08T18:42:26.391Z,99477.22
2023-01-08T18:44:55.985Z,99478.66
2023-01-08T18:47:26.401Z,99474.22
2023-01-08T18:50:03.178Z,99475.59
2023-01-08T18:52:32.517Z,99480.22
2023-01-08T18:55:00.798Z,99479.62
2023-01-08T18:57:28.982Z,99480.63
2023-01-08T18:59:56.754Z,99482.22
2023-01-08T19:02:30.568Z,99483.75
2023-01-08T19:04:58.465Z,99482.16
2023-01-08T19:07:27.519Z,99481.31
2023-01-08T19:09:57.341Z,99474.28
2023-01-08T19:12:28.158Z,99476.28
2023-01-08T19:14:57.706Z,99481.66
2023-01-08T19:17:26.480Z,99489.91
2023-01-08T19:19:55.181Z,99486.81
2023-01-08T19:22:26.847Z,99485.88
2023-01-08T19:24:56.614Z,99486.81
2023-01-08T19:27:24.491Z,99485.81
2023-01-08T19:29:52.927Z,99473.88
2023-01-08T19:32:21.460Z,99476.31
2023-01-08T19:34:50.682Z,99474.84
2023-01-08T19:37:19.457Z,99468.37
2023-01-08T19:39:48.603Z,99465.88
2023-01-08T19:42:35.094Z,99462.63
2023-01-08T19:45:04.595Z,99461.63
2023-01-08T19:47:32.969Z,99472.19
2023-01-08T19:50:03.356Z,99456.44
2023-01-08T19:52:32.111Z,99465.56
2023-01-08T19:55:01.891Z,99462.84
2023-01-08T19:57:30.353Z,99450.34
2023-01-08T20:00:02.453Z,99450.94
2023-01-08T20:02:39.637Z,99460.47
2023-01-08T20:05:09.757Z,99454.56
2023-01-08T20:07:39.612Z,99457.09
2023-01-08T20:10:11.867Z,99457.38
2023-01-08T20:12:40.335Z,99447.38
2023-01-08T20:15:09.513Z,99448.69
2023-01-08T20:17:39.059Z,99448.47
2023-01-08T20:20:08.062Z,99440.22
2023-01-08T20:22:36.909Z,99440.16
2023-01-08T20:25:05.399Z,99441.59
2023-01-08T20:27:33.685Z,99446.22
2023-01-08T20:30:03.112Z,99439.63
2023-01-08T20:32:31.212Z,99440.75
2023-01-08T20:34:59.831Z,99451.19
2023-01-08T20:37:29.812Z,99444.06
2023-01-08T20:39:58.135Z,99431.66
2023-01-08T20:42:34.008Z,99444.06
2023-01-08T20:45:04.087Z,99435.44
2023-01-08T20:47:35.358Z,99436.28
2023-01-08T20:50:12.338Z,99439.28
2023-01-08T20:52:47.917Z,99440.47
2023-01-08T20:55:18.471Z,99441.88
2023-01-08T20:57:46.698Z,99433.25
2023-01-08T21:00:17.496Z,99429.37
2023-01-08T21:02:46.494Z,99437.28
2023-01-08T21:05:14.288Z,99425.25
2023-01-08T21:07:42.195Z,99415.53
2023-01-08T21:10:11.979Z,99413.81
2023-01-08T21:12:39.551Z,99417.13
2023-01-08T21:15:08.966Z,99415.09
2023-01-08T21:17:36.980Z,99415.97
2023-01-08T21:20:05.622Z,99407.56
2023-01-08T21:22:33.069Z,99401.19
2023-01-08T21:25:00.874Z,99411.16
2023-01-08T21:27:28.422Z,99404.28
2023-01-08T21:29:56.059Z,99416.06
2023-01-08T21:32:24.037Z,99403.94
2023-01-08T21:34:52.290Z,99401.09
2023-01-08T21:37:20.082Z,99405.41
2023-01-08T21:39:48.136Z,99397.50
2023-01-08T21:42:34.260Z,99399.31
2023-01-08T21:45:20.160Z,99398.94
2023-01-08T21:47:47.589Z,99401.31
2023-01-08T21:50:15.294Z,99385.47
2023-01-08T21:53:01.573Z,99390.81
2023-01-08T21:55:29.534Z,99395.28
2023-01-08T21:57:56.944Z,99393.38
2023-01-08T22:00:25.140Z,99392.50
2023-01-08T22:02:53.398Z,99391.19
2023-01-08T22:05:20.867Z,99398.78
2023-01-08T22:07:48.692Z,99386.75
2023-01-08T22:10:16.548Z,99378.22
2023-01-08T22:12:44.035Z,99380.44
2023-01-08T22:15:11.736Z,99374.22
2023-01-08T22:17:39.659Z,99371.50
2023-01-08T22:20:09.768Z,99364.31
2023-01-08T22:22:38.520Z,99371.44
2023-01-08T22:25:06.973Z,99365.31
2023-01-08T22:27:34.400Z,99360.00
2023-01-08T22:30:01.914Z,99362.41
2023-01-08T22:32:29.649Z,99363.97
2023-01-08T22:34:57.172Z,99356.13
2023-01-08T22:37:24.638Z,99351.28
2023-01-08T22:39:52.478Z,99351.09
2023-01-08T22:42:19.929Z,99345.81
2023-01-08T22:44:49.298Z,99348.25
2023-01-08T22:47:18.333Z,99337.66
2023-01-08T22:49:45.807Z,99336.03
2023-01-08T22:52:13.457Z,99327.28
2023-01-08T22:54:41.356Z,99328.09
2023-01-08T22:57:08.836Z,99322.34
2023-01-08T22:59:36.319Z,99320.88
2023-01-08T23:02:04.221Z,99319.62
2023-01-08T23:04:31.741Z,99310.75
2023-01-08T23:06:59.179Z,99309.03
2023-01-08T23:09:26.997Z,99299.91
2023-01-08T23:11:54.583Z,99302.03
2023-01-08T23:14:23.203Z,99300.19
2023-01-08T23:16:51.026Z,99297.22
2023-01-08T23:19:18.483Z,99288.34
2023-01-08T23:21:45.965Z,99284.44
2023-01-08T23:24:13.948Z,99285.72
2023-01-08T23:26:42.195Z,99288.19
2023-01-08T23:29:10.771Z,99279.53
2023-01-08T23:31:38.986Z,99279.19
2023-01-08T23:34:06.932Z,99276.59
2023-01-08T23:36:34.472Z,99281.44
2023-01-08T23:39:02.562Z,99280.53
2023-01-08T23:41:34.409Z,99272.03
2023-01-08T23:44:05.238Z,99276.59
2023-01-08T23:46:33.120Z,99267.94
2023-01-08T23:49:00.955Z,99270.34
2023-01-08T23:51:29.096Z,99278.56
2023-01-08T23:53:56.592Z,99270.47
2023-01-08T23:56:24.157Z,99263.19
2023-01-08T23:58:53.151Z,99262.44
